Aviation Digital Data Service (ADDS)

Output produced by TAFs form (0745 UTC 29 May 2017)
found at http://www.aviationweather.gov/adds/tafs/
 
METAR text: ZJHK 290700Z 07007MPS 9999 SCT023 BKN033 30/24 Q1007 NOSIG
Conditions at: ZJHK (HAIKOU , CN) observed 0700 UTC 29 May 2017
Temperature: 30.0°C (86°F)
Dewpoint: 24.0°C (75°F) [RH = 70%]
Pressure (altimeter): 29.73 inches Hg (1007.0 mb)
Winds: from the ENE (70 degrees) at 16 MPH (14 knots; 7.3 m/s)
Visibility: 6 or more miles (10+ km)
Ceiling: 3300 feet AGL
Clouds: scattered clouds at 2300 feet AGL
broken clouds at 3300 feet AGL
Weather: no significant weather observed at this time

Forecast for: ZJHK (HAIKOU , CN)
Text: TAF ZJHK 290143Z 2906/3006 06004MPS 9999 SCT017 FEW030CB TX31/2906Z TN24/2918Z
Forecast period: 0600 to 1000 UTC 29 May 2017
Forecast type: FROM: standard forecast or significant change
Winds: from the ENE (60 degrees) at 9 MPH (8 knots; 4.2 m/s)
Visibility: 6 or more miles (10+ km)
Clouds: scattered clouds at 1700 feet AGL
few clouds at 3000 feet AGL
Weather: no significant weather forecast for this period
Text: BECMG 2910/2911 NSC
Forecast period: 1000 UTC 29 May 2017 to 0600 UTC 30 May 2017
Forecast type: BECOMING: Conditions expected to become as follows by 1100 UTC 29 May 2017
Winds: from the ENE (60 degrees) at 9 MPH (8 knots; 4.2 m/s)
Visibility: 6 or more miles (10+ km)
Weather: no significant weather forecast for this period